sensor_id;sensor_type;location;lat;lon;timestamp;pressure;altitude;pressure_sealevel;temperature;humidity
75188;BME280;63762;51.334;22.108;2023-02-03T00:02:24;101972.88;;;0.81;79.41
75188;BME280;63762;51.334;22.108;2023-02-03T00:12:32;101964.52;;;0.58;80.24
75188;BME280;63762;51.334;22.108;2023-02-03T00:22:38;102002.38;;;0.62;79.94
75188;BME280;63762;51.334;22.108;2023-02-03T00:32:45;101990.33;;;0.46;80.10
75188;BME280;63762;51.334;22.108;2023-02-03T00:42:53;101989.66;;;0.35;80.39
75188;BME280;63762;51.334;22.108;2023-02-03T00:53:00;102013.48;;;0.35;80.31
75188;BME280;63762;51.334;22.108;2023-02-03T01:03:07;102002.81;;;0.39;79.97
75188;BME280;63762;51.334;22.108;2023-02-03T01:13:14;102011.40;;;0.52;80.04
75188;BME280;63762;51.334;22.108;2023-02-03T01:23:21;102005.03;;;0.62;79.19
75188;BME280;63762;51.334;22.108;2023-02-03T01:33:28;102005.83;;;0.67;79.08
75188;BME280;63762;51.334;22.108;2023-02-03T01:43:38;102012.17;;;0.58;80.25
75188;BME280;63762;51.334;22.108;2023-02-03T01:53:42;102001.63;;;0.55;80.40
75188;BME280;63762;51.334;22.108;2023-02-03T02:03:54;101998.16;;;0.52;80.41
75188;BME280;63762;51.334;22.108;2023-02-03T02:13:59;102002.51;;;0.54;80.80
75188;BME280;63762;51.334;22.108;2023-02-03T02:34:26;102005.94;;;0.61;80.58
75188;BME280;63762;51.334;22.108;2023-02-03T02:44:36;102004.23;;;0.58;80.20
75188;BME280;63762;51.334;22.108;2023-02-03T02:54:40;102021.71;;;0.67;79.56
75188;BME280;63762;51.334;22.108;2023-02-03T03:04:43;102027.95;;;0.63;79.77
75188;BME280;63762;51.334;22.108;2023-02-03T03:14:56;102032.49;;;0.56;79.47
75188;BME280;63762;51.334;22.108;2023-02-03T03:25:14;102010.32;;;0.62;80.20
75188;BME280;63762;51.334;22.108;2023-02-03T03:35:11;102010.34;;;0.60;80.16
75188;BME280;63762;51.334;22.108;2023-02-03T03:45:17;102021.77;;;0.64;79.12
75188;BME280;63762;51.334;22.108;2023-02-03T03:55:20;102014.84;;;0.57;78.90
75188;BME280;63762;51.334;22.108;2023-02-03T04:05:22;102024.49;;;0.59;79.51
75188;BME280;63762;51.334;22.108;2023-02-03T04:15:24;102034.28;;;0.54;78.90
75188;BME280;63762;51.334;22.108;2023-02-03T04:25:29;102010.30;;;0.63;79.58
75188;BME280;63762;51.334;22.108;2023-02-03T04:35:37;102024.41;;;0.64;78.96
75188;BME280;63762;51.334;22.108;2023-02-03T04:45:44;102041.31;;;0.57;77.73
75188;BME280;63762;51.334;22.108;2023-02-03T04:55:51;102057.44;;;0.43;78.18
75188;BME280;63762;51.334;22.108;2023-02-03T05:05:58;102059.34;;;0.34;76.96
75188;BME280;63762;51.334;22.108;2023-02-03T05:16:05;102048.66;;;0.40;76.56
75188;BME280;63762;51.334;22.108;2023-02-03T05:26:12;102044.52;;;0.24;76.55
75188;BME280;63762;51.334;22.108;2023-02-03T05:36:19;102032.49;;;0.04;78.16
75188;BME280;63762;51.334;22.108;2023-02-03T05:46:27;102045.43;;;0.23;77.37
75188;BME280;63762;51.334;22.108;2023-02-03T05:56:34;102053.46;;;0.17;78.08
75188;BME280;63762;51.334;22.108;2023-02-03T06:06:41;102041.98;;;0.18;77.44
75188;BME280;63762;51.334;22.108;2023-02-03T06:16:48;102042.95;;;0.12;77.07
75188;BME280;63762;51.334;22.108;2023-02-03T06:26:55;102045.62;;;0.11;75.87
75188;BME280;63762;51.334;22.108;2023-02-03T06:37:02;102033.48;;;-0.03;74.79
75188;BME280;63762;51.334;22.108;2023-02-03T06:47:10;102038.69;;;0.03;73.49
75188;BME280;63762;51.334;22.108;2023-02-03T06:57:17;102028.04;;;0.08;72.13
75188;BME280;63762;51.334;22.108;2023-02-03T07:07:24;102019.12;;;0.14;72.20
75188;BME280;63762;51.334;22.108;2023-02-03T07:17:31;101995.73;;;0.40;67.90
75188;BME280;63762;51.334;22.108;2023-02-03T07:27:38;101991.23;;;0.45;67.52
75188;BME280;63762;51.334;22.108;2023-02-03T07:37:45;101972.76;;;0.42;66.93
75188;BME280;63762;51.334;22.108;2023-02-03T07:47:53;101969.26;;;0.40;65.31
75188;BME280;63762;51.334;22.108;2023-02-03T07:57:59;101944.50;;;0.44;64.61
75188;BME280;63762;51.334;22.108;2023-02-03T08:08:07;101940.72;;;0.57;64.27
75188;BME280;63762;51.334;22.108;2023-02-03T08:18:14;101923.34;;;0.85;66.57
75188;BME280;63762;51.334;22.108;2023-02-03T08:28:21;101906.27;;;1.37;66.08
75188;BME280;63762;51.334;22.108;2023-02-03T08:38:28;101889.72;;;1.98;62.44
75188;BME280;63762;51.334;22.108;2023-02-03T08:48:36;101871.29;;;1.92;59.65
75188;BME280;63762;51.334;22.108;2023-02-03T08:58:42;101876.30;;;2.04;58.99
75188;BME280;63762;51.334;22.108;2023-02-03T09:08:49;101869.83;;;1.80;61.51
75188;BME280;63762;51.334;22.108;2023-02-03T09:18:57;101866.76;;;1.97;56.19
75188;BME280;63762;51.334;22.108;2023-02-03T09:29:04;101845.37;;;2.03;61.08
75188;BME280;63762;51.334;22.108;2023-02-03T09:39:11;101826.94;;;2.29;59.09
75188;BME280;63762;51.334;22.108;2023-02-03T09:49:36;101796.64;;;2.36;59.33
75188;BME280;63762;51.334;22.108;2023-02-03T09:59:34;101783.02;;;2.48;56.55
75188;BME280;63762;51.334;22.108;2023-02-03T10:09:49;101742.51;;;2.11;57.32
75188;BME280;63762;51.334;22.108;2023-02-03T10:20:02;101723.76;;;2.17;56.78
75188;BME280;63762;51.334;22.108;2023-02-03T10:40:16;101681.18;;;2.49;56.75
75188;BME280;63762;51.334;22.108;2023-02-03T10:50:21;101649.31;;;2.49;54.58
75188;BME280;63762;51.334;22.108;2023-02-03T11:00:31;101638.84;;;2.71;55.83
75188;BME280;63762;51.334;22.108;2023-02-03T11:10:37;101597.72;;;2.56;56.56
75188;BME280;63762;51.334;22.108;2023-02-03T11:20:40;101573.37;;;2.70;57.00
75188;BME280;63762;51.334;22.108;2023-02-03T11:33:35;101528.18;;;2.19;56.53
75188;BME280;63762;51.334;22.108;2023-02-03T11:43:43;101512.73;;;2.56;57.74
75188;BME280;63762;51.334;22.108;2023-02-03T12:34:49;101340.66;;;2.18;60.50
75188;BME280;63762;51.334;22.108;2023-02-03T12:44:59;101300.14;;;2.13;60.24
75188;BME280;63762;51.334;22.108;2023-02-03T13:05:22;101241.73;;;1.90;61.00
75188;BME280;63762;51.334;22.108;2023-02-03T13:15:30;101212.66;;;1.87;60.82
75188;BME280;63762;51.334;22.108;2023-02-03T13:46:00;101143.52;;;1.68;62.37
75188;BME280;63762;51.334;22.108;2023-02-03T13:56:05;101130.33;;;1.67;63.95
75188;BME280;63762;51.334;22.108;2023-02-03T14:16:24;101053.40;;;1.90;64.54
75188;BME280;63762;51.334;22.108;2023-02-03T14:26:32;101023.52;;;1.85;65.34
75188;BME280;63762;51.334;22.108;2023-02-03T14:46:54;100973.30;;;1.80;65.98
75188;BME280;63762;51.334;22.108;2023-02-03T14:57:07;100964.15;;;1.89;66.44
75188;BME280;63762;51.334;22.108;2023-02-03T15:17:28;100934.95;;;1.67;70.12
75188;BME280;63762;51.334;22.108;2023-02-03T15:27:31;100920.63;;;1.50;72.00
75188;BME280;63762;51.334;22.108;2023-02-03T15:37:42;100907.36;;;1.28;73.48
75188;BME280;63762;51.334;22.108;2023-02-03T15:58:00;100871.50;;;1.20;76.13
75188;BME280;63762;51.334;22.108;2023-02-03T16:18:17;100840.33;;;1.26;76.28
75188;BME280;63762;51.334;22.108;2023-02-03T16:28:18;100814.02;;;1.22;77.01
75188;BME280;63762;51.334;22.108;2023-02-03T16:38:33;100804.66;;;1.13;77.08
75188;BME280;63762;51.334;22.108;2023-02-03T16:48:46;100782.47;;;1.16;77.52
75188;BME280;63762;51.334;22.108;2023-02-03T16:58:59;100766.83;;;1.10;77.87
75188;BME280;63762;51.334;22.108;2023-02-03T17:09:00;100740.22;;;0.91;78.74
75188;BME280;63762;51.334;22.108;2023-02-03T17:19:01;100723.45;;;0.91;78.73
75188;BME280;63762;51.334;22.108;2023-02-03T17:29:02;100715.02;;;1.03;78.68
75188;BME280;63762;51.334;22.108;2023-02-03T17:39:03;100700.98;;;1.01;78.71
75188;BME280;63762;51.334;22.108;2023-02-03T17:49:04;100683.50;;;0.97;78.84
75188;BME280;63762;51.334;22.108;2023-02-03T17:59:05;100672.21;;;0.92;79.04
75188;BME280;63762;51.334;22.108;2023-02-03T18:09:08;100682.55;;;0.98;79.34
75188;BME280;63762;51.334;22.108;2023-02-03T18:19:12;100671.96;;;0.98;79.28
75188;BME280;63762;51.334;22.108;2023-02-03T18:29:14;100657.01;;;0.97;79.58
75188;BME280;63762;51.334;22.108;2023-02-03T18:39:17;100667.42;;;1.01;79.71
75188;BME280;63762;51.334;22.108;2023-02-03T18:49:19;100672.84;;;0.98;79.77
75188;BME280;63762;51.334;22.108;2023-02-03T18:59:20;100670.77;;;1.05;79.69
75188;BME280;63762;51.334;22.108;2023-02-03T19:09:21;100662.83;;;1.05;79.95
75188;BME280;63762;51.334;22.108;2023-02-03T19:19:24;100659.28;;;1.06;80.62
75188;BME280;63762;51.334;22.108;2023-02-03T19:29:25;100674.92;;;1.12;80.33
75188;BME280;63762;51.334;22.108;2023-02-03T19:39:26;100676.51;;;1.16;80.00
75188;BME280;63762;51.334;22.108;2023-02-03T19:49:27;100677.16;;;1.21;80.30
75188;BME280;63762;51.334;22.108;2023-02-03T19:59:33;100667.49;;;1.20;79.94
75188;BME280;63762;51.334;22.108;2023-02-03T20:09:39;100663.78;;;1.24;79.83
75188;BME280;63762;51.334;22.108;2023-02-03T20:19:47;100666.23;;;1.28;79.87
75188;BME280;63762;51.334;22.108;2023-02-03T20:29:54;100657.22;;;1.32;79.85
75188;BME280;63762;51.334;22.108;2023-02-03T20:40:02;100657.83;;;1.39;79.68
75188;BME280;63762;51.334;22.108;2023-02-03T20:50:18;100659.55;;;1.40;79.70
75188;BME280;63762;51.334;22.108;2023-02-03T21:00:23;100655.56;;;1.50;79.27
75188;BME280;63762;51.334;22.108;2023-02-03T21:10:24;100647.54;;;1.51;79.61
75188;BME280;63762;51.334;22.108;2023-02-03T21:20:30;100640.47;;;1.52;79.29
75188;BME280;63762;51.334;22.108;2023-02-03T21:30:37;100651.00;;;1.53;79.32
75188;BME280;63762;51.334;22.108;2023-02-03T21:40:44;100655.29;;;1.56;79.23
75188;BME280;63762;51.334;22.108;2023-02-03T21:50:52;100683.41;;;1.60;79.10
75188;BME280;63762;51.334;22.108;2023-02-03T22:01:00;100699.39;;;1.58;79.16
75188;BME280;63762;51.334;22.108;2023-02-03T22:11:06;100697.06;;;1.51;79.16
75188;BME280;63762;51.334;22.108;2023-02-03T22:21:13;100671.53;;;1.48;79.17
75188;BME280;63762;51.334;22.108;2023-02-03T22:31:20;100700.91;;;1.44;79.18
75188;BME280;63762;51.334;22.108;2023-02-03T22:41:27;100698.52;;;1.38;79.07
75188;BME280;63762;51.334;22.108;2023-02-03T22:51:34;100712.87;;;1.32;79.36
75188;BME280;63762;51.334;22.108;2023-02-03T23:01:41;100708.76;;;1.25;79.56
75188;BME280;63762;51.334;22.108;2023-02-03T23:11:48;100724.43;;;1.10;79.88
75188;BME280;63762;51.334;22.108;2023-02-03T23:21:55;100724.93;;;0.98;80.45
75188;BME280;63762;51.334;22.108;2023-02-03T23:32:06;100740.70;;;1.01;80.65
75188;BME280;63762;51.334;22.108;2023-02-03T23:42:10;100730.10;;;1.01;80.65
75188;BME280;63762;51.334;22.108;2023-02-03T23:52:17;100735.89;;;0.89;80.95
